createdAt,value
2019-03-10T00:02:06.834Z,87.55
2019-03-10T00:04:43.799Z,77.27
2019-03-10T00:07:20.734Z,84.70
2019-03-10T00:09:57.766Z,85.90
2019-03-10T00:12:34.528Z,86.90
2019-03-10T00:15:12.276Z,85.83
2019-03-10T00:17:49.015Z,94.35
2019-03-10T00:20:26.730Z,86.32
2019-03-10T00:23:03.747Z,87.10
2019-03-10T00:25:40.590Z,89.28
2019-03-10T00:28:16.734Z,91.12
2019-03-10T00:30:53.888Z,85.42
2019-03-10T00:33:31.198Z,91.10
2019-03-10T00:36:07.811Z,90.10
2019-03-10T00:39:08.918Z,92.20
2019-03-10T00:42:15.481Z,90.75
2019-03-10T00:45:49.475Z,91.05
2019-03-10T00:49:11.283Z,98.47
2019-03-10T00:52:29.652Z,125.10
2019-03-10T00:55:06.603Z,130.60
2019-03-10T00:57:44.817Z,129.15
2019-03-10T01:00:25.044Z,118.85
2019-03-10T01:03:01.602Z,120.95
2019-03-10T01:05:38.331Z,115.28
2019-03-10T01:08:15.315Z,108.45
2019-03-10T01:10:52.254Z,101.50
2019-03-10T01:13:29.341Z,101.05
2019-03-10T01:16:06.848Z,91.78
2019-03-10T01:18:45.140Z,79.80
2019-03-10T01:21:22.432Z,76.22
2019-03-10T01:23:59.313Z,79.53
2019-03-10T01:26:35.436Z,69.05
2019-03-10T01:29:12.528Z,60.15
2019-03-10T01:32:15.913Z,56.50
2019-03-10T01:35:21.601Z,51.45
2019-03-10T01:37:58.067Z,41.40
2019-03-10T01:40:34.783Z,34.20
2019-03-10T01:43:11.683Z,33.20
2019-03-10T01:45:48.513Z,31.75
2019-03-10T01:48:25.266Z,31.87
2019-03-10T01:51:01.763Z,30.95
2019-03-10T01:53:39.932Z,30.00
2019-03-10T01:56:16.658Z,29.48
2019-03-10T01:58:53.611Z,30.75
2019-03-10T02:01:30.890Z,29.77
2019-03-10T02:04:07.655Z,30.75
2019-03-10T02:06:44.298Z,30.25
2019-03-10T02:09:21.493Z,29.85
2019-03-10T02:11:58.215Z,28.85
2019-03-10T02:14:35.426Z,28.55
2019-03-10T02:17:12.141Z,28.80
2019-03-10T02:19:49.370Z,30.12
2019-03-10T02:22:26.269Z,29.52
2019-03-10T02:25:03.171Z,28.80
2019-03-10T02:27:39.931Z,27.50
2019-03-10T02:30:19.361Z,27.20
2019-03-10T02:32:56.044Z,25.37
2019-03-10T02:35:33.024Z,24.10
2019-03-10T02:38:09.962Z,24.25
2019-03-10T02:40:46.498Z,23.85
2019-03-10T02:43:23.483Z,24.47
2019-03-10T02:46:00.187Z,24.30
2019-03-10T02:48:36.791Z,23.32
2019-03-10T02:51:13.671Z,22.32
2019-03-10T02:53:50.582Z,22.65
2019-03-10T02:56:26.992Z,20.30
2019-03-10T02:59:03.814Z,22.22
2019-03-10T03:01:41.198Z,22.35
2019-03-10T03:04:18.411Z,23.38
2019-03-10T03:06:54.921Z,22.87
2019-03-10T03:09:32.079Z,22.73
2019-03-10T03:12:10.517Z,22.87
2019-03-10T03:14:47.700Z,21.80
2019-03-10T03:17:27.599Z,21.95
2019-03-10T03:20:04.896Z,22.37
2019-03-10T03:22:41.567Z,22.40
2019-03-10T03:25:18.927Z,22.37
2019-03-10T03:27:55.534Z,23.60
2019-03-10T03:30:32.506Z,24.02
2019-03-10T03:33:13.340Z,23.10
2019-03-10T03:35:55.784Z,23.77
2019-03-10T03:38:36.555Z,24.07
2019-03-10T03:41:19.365Z,23.10
2019-03-10T03:43:56.562Z,26.33
2019-03-10T03:46:33.537Z,25.00
2019-03-10T03:49:10.247Z,25.25
2019-03-10T03:51:47.059Z,26.25
2019-03-10T03:54:24.039Z,25.75
2019-03-10T03:57:01.135Z,25.77
2019-03-10T03:59:38.041Z,25.95
2019-03-10T04:02:51.655Z,25.45
2019-03-10T04:05:28.372Z,26.10
2019-03-10T04:08:05.303Z,25.50
2019-03-10T04:10:42.412Z,24.37
2019-03-10T04:13:19.352Z,23.40
2019-03-10T04:15:57.350Z,23.90
2019-03-10T04:18:34.197Z,24.55
2019-03-10T04:21:11.056Z,24.27
2019-03-10T04:23:48.299Z,24.02
2019-03-10T04:26:24.671Z,24.05
2019-03-10T04:29:01.481Z,24.45
2019-03-10T04:31:38.685Z,23.85
2019-03-10T04:34:15.732Z,24.23
2019-03-10T04:36:52.395Z,25.68
2019-03-10T04:39:29.077Z,24.25
2019-03-10T04:42:06.162Z,24.82
2019-03-10T04:44:42.864Z,23.92
2019-03-10T04:47:19.124Z,24.70
2019-03-10T04:49:55.567Z,23.60
2019-03-10T04:52:32.982Z,22.95
2019-03-10T04:55:33.594Z,23.15
2019-03-10T04:58:12.634Z,22.90
2019-03-10T05:00:52.174Z,23.52
2019-03-10T05:03:28.935Z,23.02
2019-03-10T05:06:05.296Z,23.38
2019-03-10T05:08:41.848Z,23.42
2019-03-10T05:11:18.820Z,23.22
2019-03-10T05:13:55.921Z,22.98
2019-03-10T05:16:32.376Z,21.80
2019-03-10T05:19:09.685Z,21.70
2019-03-10T05:21:46.359Z,23.30
2019-03-10T05:24:23.784Z,23.38
2019-03-10T05:27:00.674Z,24.65
2019-03-10T05:29:37.472Z,23.38
2019-03-10T05:32:13.655Z,22.87
2019-03-10T05:34:50.166Z,22.13
2019-03-10T05:37:27.147Z,22.37
2019-03-10T05:40:04.228Z,22.77
2019-03-10T05:42:40.387Z,22.37
2019-03-10T05:45:17.042Z,23.10
2019-03-10T05:47:54.391Z,21.68
2019-03-10T05:50:31.303Z,22.15
2019-03-10T05:53:08.165Z,22.93
2019-03-10T05:55:44.696Z,24.35
2019-03-10T05:58:21.420Z,22.48
2019-03-10T06:00:58.383Z,21.60
2019-03-10T06:03:35.602Z,24.98
2019-03-10T06:06:12.365Z,24.85
2019-03-10T06:08:49.231Z,24.65
2019-03-10T06:11:27.729Z,24.50
2019-03-10T06:14:04.796Z,24.90
2019-03-10T06:16:42.067Z,24.52
2019-03-10T06:19:19.589Z,24.45
2019-03-10T06:21:57.557Z,24.63
2019-03-10T06:24:34.727Z,24.12
2019-03-10T06:27:11.213Z,24.50
2019-03-10T06:29:51.114Z,23.77
2019-03-10T06:32:28.353Z,23.95
2019-03-10T06:35:05.100Z,23.27
2019-03-10T06:37:41.961Z,23.92
2019-03-10T06:40:18.825Z,24.32
2019-03-10T06:42:55.724Z,23.57
2019-03-10T06:45:32.803Z,24.32
2019-03-10T06:48:09.562Z,24.92
2019-03-10T06:50:46.227Z,25.62
2019-03-10T06:53:22.856Z,23.57
2019-03-10T06:55:59.814Z,23.30
2019-03-10T06:58:36.345Z,23.00
2019-03-10T07:01:13.050Z,22.35
2019-03-10T07:03:49.613Z,21.73
2019-03-10T07:06:26.276Z,21.62
2019-03-10T07:09:03.359Z,22.15
2019-03-10T07:11:40.868Z,21.62
2019-03-10T07:14:18.669Z,21.10
2019-03-10T07:16:55.848Z,19.75
2019-03-10T07:19:32.390Z,19.27
2019-03-10T07:22:09.896Z,19.25
2019-03-10T07:24:46.832Z,20.10
2019-03-10T07:27:23.973Z,19.60
2019-03-10T07:30:05.265Z,19.25
2019-03-10T07:33:03.026Z,19.75
2019-03-10T07:35:57.351Z,20.00
2019-03-10T07:38:57.952Z,18.80
2019-03-10T07:41:57.448Z,18.15
2019-03-10T07:44:50.852Z,18.42
2019-03-10T07:47:44.086Z,17.52
2019-03-10T07:50:37.120Z,18.40
2019-03-10T07:53:32.541Z,19.00
2019-03-10T07:56:39.534Z,20.32
2019-03-10T07:59:30.503Z,19.90
2019-03-10T08:02:30.635Z,20.30
2019-03-10T08:05:24.530Z,20.92
2019-03-10T08:08:19.241Z,20.32
2019-03-10T08:11:17.422Z,20.05
2019-03-10T08:14:10.576Z,20.20
2019-03-10T08:16:55.094Z,19.12
2019-03-10T08:19:48.629Z,20.35
2019-03-10T08:22:39.579Z,20.62
2019-03-10T08:25:49.267Z,20.35
2019-03-10T08:28:46.175Z,20.25
2019-03-10T08:31:50.132Z,22.00
2019-03-10T08:34:35.527Z,21.10
2019-03-10T08:37:20.777Z,20.05
2019-03-10T08:40:16.771Z,19.62
2019-03-10T08:43:11.519Z,20.80
2019-03-10T08:46:05.390Z,19.45
2019-03-10T08:49:00.286Z,19.98
2019-03-10T08:52:01.262Z,19.27
2019-03-10T08:55:02.397Z,20.15
2019-03-10T08:57:58.483Z,20.82
2019-03-10T09:00:55.971Z,20.00
2019-03-10T09:04:03.060Z,20.62
2019-03-10T09:07:06.013Z,22.60
2019-03-10T09:09:57.894Z,22.10
2019-03-10T09:12:51.147Z,22.05
2019-03-10T09:15:49.209Z,21.27
2019-03-10T09:18:36.321Z,21.02
2019-03-10T09:21:27.992Z,20.45
2019-03-10T09:24:15.869Z,20.50
2019-03-10T09:27:09.269Z,20.80
2019-03-10T09:30:10.991Z,20.80
2019-03-10T09:33:17.616Z,20.95
2019-03-10T09:36:11.833Z,21.10
2019-03-10T09:39:05.573Z,19.77
2019-03-10T09:42:01.082Z,19.85
2019-03-10T09:44:54.889Z,19.37
2019-03-10T09:47:55.909Z,18.45
2019-03-10T09:50:43.195Z,19.50
2019-03-10T09:53:53.083Z,17.67
2019-03-10T09:57:06.623Z,17.67
2019-03-10T10:00:14.104Z,18.30
2019-03-10T10:03:17.802Z,18.15
2019-03-10T10:06:21.435Z,18.75
2019-03-10T10:09:16.658Z,18.80
2019-03-10T10:12:13.414Z,18.90
2019-03-10T10:15:09.402Z,19.92
2019-03-10T10:17:57.170Z,19.27
2019-03-10T10:20:51.679Z,17.92
2019-03-10T10:23:46.738Z,16.95
2019-03-10T10:26:36.758Z,15.38
2019-03-10T10:29:30.307Z,15.63
2019-03-10T10:32:25.690Z,14.73
2019-03-10T10:35:26.368Z,14.90
2019-03-10T10:38:27.095Z,13.65
2019-03-10T10:41:21.177Z,14.25
2019-03-10T10:44:14.650Z,13.50
2019-03-10T10:47:15.455Z,14.38
2019-03-10T10:50:09.069Z,15.32
2019-03-10T10:53:03.151Z,18.17
2019-03-10T10:56:03.991Z,18.05
2019-03-10T10:59:14.345Z,18.65
2019-03-10T11:02:02.845Z,18.10
2019-03-10T11:04:58.823Z,18.48
2019-03-10T11:07:56.628Z,18.27
2019-03-10T11:10:51.685Z,17.62
2019-03-10T11:14:01.877Z,18.30
2019-03-10T11:17:02.994Z,18.85
2019-03-10T11:20:16.137Z,18.42
2019-03-10T11:23:00.117Z,19.15
2019-03-10T11:26:00.828Z,19.32
2019-03-10T11:29:02.686Z,20.48
2019-03-10T11:32:00.822Z,21.48
2019-03-10T11:35:05.484Z,20.52
2019-03-10T11:37:53.204Z,20.30
2019-03-10T11:40:49.942Z,22.17
2019-03-10T11:43:45.142Z,23.07
2019-03-10T11:46:45.220Z,23.73
2019-03-10T11:49:36.855Z,27.62
2019-03-10T11:52:19.207Z,29.12
2019-03-10T11:55:13.525Z,28.73
2019-03-10T11:57:59.739Z,29.77
2019-03-10T12:01:12.839Z,25.72
2019-03-10T12:04:02.036Z,23.22
2019-03-10T12:06:59.686Z,26.02
2019-03-10T12:09:37.023Z,26.90
2019-03-10T12:12:13.646Z,27.00
2019-03-10T12:14:51.102Z,27.87
2019-03-10T12:17:27.998Z,26.02
2019-03-10T12:20:04.834Z,25.30
2019-03-10T12:22:41.946Z,25.82
2019-03-10T12:25:19.114Z,25.08
2019-03-10T12:27:56.234Z,25.08
2019-03-10T12:30:35.992Z,24.63
2019-03-10T12:33:12.922Z,26.23
2019-03-10T12:35:50.488Z,24.92
2019-03-10T12:38:27.236Z,24.60
2019-03-10T12:41:05.338Z,24.95
2019-03-10T12:43:43.183Z,24.05
2019-03-10T12:46:20.091Z,26.15
2019-03-10T12:48:56.449Z,24.35
2019-03-10T12:51:33.370Z,25.20
2019-03-10T12:54:09.970Z,25.65
2019-03-10T12:56:46.953Z,26.45
2019-03-10T12:59:23.278Z,27.52
2019-03-10T13:02:00.085Z,27.52
2019-03-10T13:04:36.602Z,28.02
2019-03-10T13:07:13.465Z,26.62
2019-03-10T13:09:50.391Z,27.45
2019-03-10T13:12:27.129Z,28.30
2019-03-10T13:15:03.907Z,28.02
2019-03-10T13:17:41.212Z,27.55
2019-03-10T13:20:27.899Z,27.02
2019-03-10T13:22:56.188Z,28.10
2019-03-10T13:25:32.775Z,28.73
2019-03-10T13:28:09.698Z,30.68
2019-03-10T13:30:48.207Z,30.37
2019-03-10T13:33:25.049Z,29.63
2019-03-10T13:36:01.936Z,31.15
2019-03-10T13:38:39.249Z,31.85
2019-03-10T13:41:16.096Z,31.95
2019-03-10T13:43:52.861Z,30.88
2019-03-10T13:46:29.458Z,33.63
2019-03-10T13:49:06.509Z,32.20
2019-03-10T13:51:43.328Z,34.03
2019-03-10T13:54:20.206Z,32.33
2019-03-10T13:56:58.136Z,32.03
2019-03-10T13:59:35.178Z,32.28
2019-03-10T14:02:11.448Z,31.97
2019-03-10T14:04:48.498Z,33.20
2019-03-10T14:07:25.138Z,32.10
2019-03-10T14:10:02.285Z,33.78
2019-03-10T14:12:39.062Z,32.03
2019-03-10T14:15:16.462Z,32.58
2019-03-10T14:17:53.496Z,32.20
2019-03-10T14:20:30.563Z,33.73
2019-03-10T14:23:08.154Z,34.53
2019-03-10T14:25:44.878Z,33.88
2019-03-10T14:28:22.268Z,34.45
2019-03-10T14:30:59.137Z,35.13
2019-03-10T14:33:36.048Z,37.83
2019-03-10T14:36:13.174Z,35.85
2019-03-10T14:38:49.975Z,35.08
2019-03-10T14:41:26.831Z,35.40
2019-03-10T14:44:03.597Z,34.88
2019-03-10T14:46:40.274Z,33.75
2019-03-10T14:49:23.137Z,35.15
2019-03-10T14:51:55.308Z,34.70
2019-03-10T14:54:31.960Z,34.40
2019-03-10T14:57:08.889Z,33.95
2019-03-10T14:59:45.179Z,33.85
2019-03-10T15:02:21.941Z,34.55
2019-03-10T15:04:58.529Z,34.58
2019-03-10T15:07:35.715Z,33.65
2019-03-10T15:10:13.085Z,34.75
2019-03-10T15:12:49.592Z,34.15
2019-03-10T15:15:26.573Z,34.53
2019-03-10T15:18:07.228Z,33.20
2019-03-10T15:20:44.676Z,35.45
2019-03-10T15:23:21.294Z,33.33
2019-03-10T15:25:58.113Z,35.30
2019-03-10T15:28:35.011Z,40.30
2019-03-10T15:31:11.677Z,35.28
2019-03-10T15:33:48.410Z,35.90
2019-03-10T15:36:26.032Z,35.50
2019-03-10T15:39:02.542Z,37.03
2019-03-10T15:41:40.111Z,45.45
2019-03-10T15:44:16.468Z,46.95
2019-03-10T15:46:53.772Z,51.53
2019-03-10T15:49:29.859Z,52.30
2019-03-10T15:52:07.623Z,53.68
2019-03-10T15:54:44.336Z,53.05
2019-03-10T15:57:21.636Z,47.78
2019-03-10T15:59:58.699Z,49.27
2019-03-10T16:02:35.550Z,49.60
2019-03-10T16:05:12.478Z,46.48
2019-03-10T16:07:49.485Z,46.20
2019-03-10T16:10:26.228Z,52.23
2019-03-10T16:13:02.719Z,51.68
2019-03-10T16:15:39.047Z,48.48
2019-03-10T16:18:15.350Z,52.83
2019-03-10T16:20:52.076Z,47.58
2019-03-10T16:23:28.356Z,47.60
2019-03-10T16:26:06.049Z,47.98
2019-03-10T16:28:42.931Z,47.00
2019-03-10T16:31:20.040Z,46.55
2019-03-10T16:33:56.480Z,47.03
2019-03-10T16:36:33.413Z,46.25
2019-03-10T16:39:12.112Z,47.53
2019-03-10T16:41:49.244Z,44.53
2019-03-10T16:44:25.869Z,45.12
2019-03-10T16:47:03.036Z,46.60
2019-03-10T16:49:45.425Z,43.48
2019-03-10T16:52:22.344Z,43.50
2019-03-10T16:54:58.948Z,45.98
2019-03-10T16:57:35.671Z,45.60
2019-03-10T17:00:13.558Z,45.58
2019-03-10T17:02:50.432Z,46.45
2019-03-10T17:05:27.046Z,44.15
2019-03-10T17:08:03.881Z,44.50
2019-03-10T17:10:40.941Z,43.48
2019-03-10T17:13:17.810Z,43.25
2019-03-10T17:15:54.519Z,44.53
2019-03-10T17:18:31.521Z,45.45
2019-03-10T17:21:08.011Z,43.70
2019-03-10T17:23:45.151Z,44.27
2019-03-10T17:26:22.165Z,43.95
2019-03-10T17:28:59.471Z,42.60
2019-03-10T17:31:36.457Z,44.35
2019-03-10T17:34:13.237Z,45.58
2019-03-10T17:36:49.984Z,44.90
2019-03-10T17:39:27.138Z,44.30
2019-03-10T17:42:03.760Z,42.53
2019-03-10T17:44:41.672Z,45.23
2019-03-10T17:47:18.525Z,44.05
2019-03-10T17:49:55.071Z,44.05
2019-03-10T17:52:32.874Z,44.38
2019-03-10T17:55:09.572Z,43.85
2019-03-10T17:57:46.599Z,44.03
2019-03-10T18:00:25.013Z,44.55
2019-03-10T18:03:01.856Z,43.42
2019-03-10T18:05:38.720Z,44.27
2019-03-10T18:08:15.226Z,45.73
2019-03-10T18:10:52.342Z,46.15
2019-03-10T18:13:29.049Z,45.38
2019-03-10T18:16:05.962Z,43.30
2019-03-10T18:18:42.942Z,45.12
2019-03-10T18:21:21.467Z,45.30
2019-03-10T18:23:57.984Z,45.45
2019-03-10T18:26:34.817Z,43.92
2019-03-10T18:29:12.229Z,45.12
2019-03-10T18:31:49.179Z,45.78
2019-03-10T18:34:26.572Z,44.27
2019-03-10T18:37:03.306Z,50.95
2019-03-10T18:39:39.887Z,46.90
2019-03-10T18:42:16.459Z,50.38
2019-03-10T18:44:53.403Z,47.93
2019-03-10T18:47:30.073Z,49.30
2019-03-10T18:50:07.131Z,48.90
2019-03-10T18:52:44.061Z,51.40
2019-03-10T18:55:21.729Z,54.65
2019-03-10T18:57:58.562Z,55.80
2019-03-10T19:00:35.532Z,56.42
2019-03-10T19:03:12.402Z,52.78
2019-03-10T19:05:49.494Z,57.33
2019-03-10T19:08:26.190Z,55.20
2019-03-10T19:11:03.138Z,57.88
2019-03-10T19:13:40.018Z,60.00
2019-03-10T19:16:17.558Z,58.48
2019-03-10T19:18:56.779Z,57.80
2019-03-10T19:21:33.608Z,55.03
2019-03-10T19:24:10.520Z,58.08
2019-03-10T19:26:47.379Z,56.85
2019-03-10T19:29:26.114Z,54.80
2019-03-10T19:32:02.616Z,55.58
2019-03-10T19:34:39.456Z,55.75
2019-03-10T19:37:16.478Z,56.85
2019-03-10T19:39:53.472Z,54.13
2019-03-10T19:42:30.061Z,54.83
2019-03-10T19:45:07.297Z,53.05
2019-03-10T19:47:44.145Z,53.63
2019-03-10T19:50:27.049Z,53.75
2019-03-10T19:53:03.221Z,52.78
2019-03-10T19:55:39.701Z,53.38
2019-03-10T19:58:16.592Z,63.35
2019-03-10T20:00:53.426Z,55.35
2019-03-10T20:03:30.432Z,56.08
2019-03-10T20:06:06.999Z,53.95
2019-03-10T20:08:44.272Z,58.63
2019-03-10T20:11:20.795Z,60.88
2019-03-10T20:13:57.616Z,60.25
2019-03-10T20:16:34.387Z,61.25
2019-03-10T20:19:11.602Z,64.27
2019-03-10T20:21:49.202Z,65.60
2019-03-10T20:24:25.516Z,68.87
2019-03-10T20:27:02.239Z,67.72
2019-03-10T20:29:39.503Z,68.80
2019-03-10T20:32:16.330Z,69.20
2019-03-10T20:34:53.175Z,62.38
2019-03-10T20:37:30.567Z,62.15
2019-03-10T20:40:07.731Z,60.98
2019-03-10T20:42:44.980Z,58.33
2019-03-10T20:45:24.161Z,58.73
2019-03-10T20:48:00.174Z,58.92
2019-03-10T20:50:37.835Z,58.38
2019-03-10T20:53:14.990Z,58.30
2019-03-10T20:55:52.743Z,58.75
2019-03-10T20:58:29.501Z,57.60
2019-03-10T21:01:06.399Z,56.33
2019-03-10T21:03:43.222Z,59.30
2019-03-10T21:06:20.252Z,56.80
2019-03-10T21:08:56.894Z,58.23
2019-03-10T21:11:34.261Z,56.65
2019-03-10T21:14:11.192Z,57.60
2019-03-10T21:16:48.106Z,59.25
2019-03-10T21:19:25.053Z,57.58
2019-03-10T21:22:02.072Z,56.60
2019-03-10T21:24:38.646Z,55.48
2019-03-10T21:27:15.328Z,58.45
2019-03-10T21:29:54.539Z,55.45
2019-03-10T21:32:31.845Z,61.05
2019-03-10T21:35:17.132Z,62.70
2019-03-10T21:37:46.538Z,59.23
2019-03-10T21:40:25.211Z,60.92
2019-03-10T21:43:02.204Z,57.33
2019-03-10T21:45:38.749Z,56.33
2019-03-10T21:48:15.458Z,58.85
2019-03-10T21:50:52.397Z,65.10
2019-03-10T21:53:28.760Z,57.83
2019-03-10T21:56:07.213Z,58.92
2019-03-10T21:58:44.584Z,59.05
2019-03-10T22:01:21.562Z,65.83
2019-03-10T22:03:58.301Z,67.15
2019-03-10T22:06:35.305Z,63.78
2019-03-10T22:09:12.523Z,59.42
2019-03-10T22:11:49.712Z,69.03
2019-03-10T22:14:28.591Z,63.28
2019-03-10T22:17:04.594Z,66.77
2019-03-10T22:19:40.887Z,61.65
2019-03-10T22:22:17.673Z,66.62
2019-03-10T22:24:54.480Z,67.35
2019-03-10T22:27:31.441Z,65.42
2019-03-10T22:30:09.244Z,66.37
2019-03-10T22:32:46.294Z,65.87
2019-03-10T22:35:23.666Z,65.45
2019-03-10T22:38:00.811Z,63.63
2019-03-10T22:40:37.519Z,63.15
2019-03-10T22:43:14.072Z,66.62
2019-03-10T22:45:51.371Z,66.47
2019-03-10T22:48:27.824Z,74.90
2019-03-10T22:51:04.643Z,75.65
2019-03-10T22:53:41.185Z,72.35
2019-03-10T22:56:19.280Z,82.62
2019-03-10T22:58:55.634Z,84.15
2019-03-10T23:01:32.626Z,79.25
2019-03-10T23:04:09.274Z,83.85
2019-03-10T23:06:46.694Z,86.05
2019-03-10T23:09:23.515Z,82.20
2019-03-10T23:12:00.876Z,88.00
2019-03-10T23:14:37.921Z,86.28
2019-03-10T23:17:15.217Z,107.00
2019-03-10T23:19:53.086Z,101.38
2019-03-10T23:22:30.091Z,97.17
2019-03-10T23:25:06.523Z,99.22
2019-03-10T23:27:43.915Z,92.15
2019-03-10T23:30:21.420Z,95.17
2019-03-10T23:32:58.523Z,99.32
2019-03-10T23:35:35.437Z,94.55
2019-03-10T23:38:12.587Z,95.12
2019-03-10T23:40:49.574Z,99.40
2019-03-10T23:43:27.988Z,107.65
2019-03-10T23:46:04.215Z,107.58
2019-03-10T23:48:41.312Z,102.47
2019-03-10T23:51:19.055Z,110.85
2019-03-10T23:53:56.253Z,106.17
2019-03-10T23:56:33.080Z,101.85
2019-03-10T23:59:09.996Z,99.80
